SJV864 WIII-WIBB
Flight info
| Callsign | SJV864 |
|---|---|
| Flight time | 1h 17m |
| Altitude | 36000 |
| Route | GOMEL T10 OVSET |
| Aircraft | A320/M-SDE3FGHIRWY/LB1 |
Departure
| Time | 2026-05-04 11:31 |
|---|---|
| Airport | Soekarno-Hatta International Airport (WIII) |
Arrival
| Time | 2026-05-04 12:49 |
|---|---|
| Airport | Sultan Syarif Kasim II International Airport / Roesmin Nurjadin AFB (WIBB) |
| Time | Latitude | Longitude | Altitude | Speed | Heading |
|---|---|---|---|---|---|
| 2026-05-04 11:12 | -6.13185 | 106.65751 | 38 ft | 0 kts | 279° |
| 2026-05-04 11:20 | -6.13186 | 106.65757 | 38 ft | 2 kts | 279° |
| 2026-05-04 11:20 | -6.13189 | 106.65773 | 38 ft | 2 kts | 279° |
| 2026-05-04 11:20 | -6.13191 | 106.65789 | 38 ft | 2 kts | 278° |
| 2026-05-04 11:22 | -6.13163 | 106.65829 | 38 ft | 0 kts | 187° |
| 2026-05-04 11:24 | -6.13175 | 106.65827 | 38 ft | 3 kts | 187° |
| 2026-05-04 11:25 | -6.13205 | 106.65823 | 38 ft | 6 kts | 187° |
| 2026-05-04 11:25 | -6.13254 | 106.65817 | 38 ft | 8 kts | 187° |
| 2026-05-04 11:25 | -6.13319 | 106.65813 | 38 ft | 11 kts | 171° |
| 2026-05-04 11:26 | -6.13318 | 106.65962 | 38 ft | 15 kts | 67° |
| 2026-05-04 11:27 | -6.12964 | 106.66843 | 38 ft | 19 kts | 68° |
| 2026-05-04 11:28 | -6.12915 | 106.66970 | 37 ft | 19 kts | 69° |
| 2026-05-04 11:28 | -6.12865 | 106.67098 | 36 ft | 20 kts | 69° |
| 2026-05-04 11:28 | -6.12813 | 106.67229 | 38 ft | 21 kts | 68° |
| 2026-05-04 11:28 | -6.12782 | 106.67350 | 38 ft | 16 kts | 109° |
| 2026-05-04 11:29 | -6.12867 | 106.67398 | 38 ft | 11 kts | 159° |
| 2026-05-04 11:29 | -6.12939 | 106.67422 | 39 ft | 11 kts | 172° |
| 2026-05-04 11:29 | -6.13017 | 106.67398 | 39 ft | 12 kts | 200° |
| 2026-05-04 11:29 | -6.13068 | 106.67319 | 36 ft | 20 kts | 249° |
| 2026-05-04 11:31 | -6.15642 | 106.60570 | 2346 ft | 206 kts | 245° |
| 2026-05-04 11:33 | -6.13373 | 106.50123 | 6474 ft | 285 kts | 326° |
| 2026-05-04 11:33 | -6.11760 | 106.48991 | 7223 ft | 289 kts | 326° |
| 2026-05-04 11:33 | -6.10106 | 106.47828 | 7994 ft | 292 kts | 325° |
| 2026-05-04 11:34 | -6.08436 | 106.46648 | 8753 ft | 295 kts | 325° |
| 2026-05-04 11:34 | -6.06750 | 106.45453 | 9502 ft | 298 kts | 325° |
| 2026-05-04 11:34 | -6.05022 | 106.44228 | 10192 ft | 303 kts | 325° |
| 2026-05-04 11:34 | -6.03262 | 106.42980 | 10387 ft | 325 kts | 325° |
| 2026-05-04 11:35 | -6.01352 | 106.41628 | 10536 ft | 346 kts | 325° |
| 2026-05-04 11:35 | -5.99356 | 106.40214 | 10973 ft | 355 kts | 325° |
| 2026-05-04 11:35 | -5.97327 | 106.38776 | 11541 ft | 358 kts | 326° |
| 2026-05-04 11:35 | -5.95282 | 106.37326 | 12127 ft | 362 kts | 326° |
| 2026-05-04 11:36 | -5.93212 | 106.35860 | 12703 ft | 366 kts | 326° |
| 2026-05-04 11:36 | -5.91123 | 106.34383 | 13255 ft | 369 kts | 326° |
| 2026-05-04 11:36 | -5.89016 | 106.32893 | 13805 ft | 372 kts | 326° |
| 2026-05-04 11:36 | -5.86889 | 106.31387 | 14295 ft | 376 kts | 326° |
| 2026-05-04 11:37 | -5.84744 | 106.29866 | 14795 ft | 379 kts | 326° |
| 2026-05-04 11:37 | -5.82584 | 106.28333 | 15298 ft | 382 kts | 326° |
| 2026-05-04 11:37 | -5.80407 | 106.26790 | 15791 ft | 385 kts | 326° |
| 2026-05-04 11:37 | -5.78215 | 106.25235 | 16285 ft | 387 kts | 326° |
| 2026-05-04 11:38 | -5.76004 | 106.23667 | 16768 ft | 390 kts | 326° |
| 2026-05-04 11:38 | -5.73777 | 106.22089 | 17239 ft | 394 kts | 326° |
| 2026-05-04 11:38 | -5.71531 | 106.20501 | 17729 ft | 396 kts | 326° |
| 2026-05-04 11:38 | -5.69267 | 106.18901 | 18194 ft | 400 kts | 326° |
| 2026-05-04 11:39 | -5.66984 | 106.17288 | 18605 ft | 403 kts | 326° |
| 2026-05-04 11:39 | -5.64688 | 106.15665 | 19031 ft | 405 kts | 326° |
| 2026-05-04 11:40 | -5.50626 | 106.05716 | 21528 ft | 421 kts | 326° |
| 2026-05-04 11:41 | -5.48226 | 106.04019 | 21925 ft | 424 kts | 326° |
| 2026-05-04 11:41 | -5.45807 | 106.02308 | 22311 ft | 426 kts | 326° |
| 2026-05-04 11:41 | -5.43381 | 106.00591 | 22695 ft | 429 kts | 326° |
| 2026-05-04 11:41 | -5.40934 | 105.98859 | 23070 ft | 431 kts | 326° |
| 2026-05-04 11:42 | -5.38471 | 105.97118 | 23440 ft | 434 kts | 326° |
| 2026-05-04 11:42 | -5.35997 | 105.95369 | 23754 ft | 436 kts | 326° |
| 2026-05-04 11:42 | -5.33508 | 105.93612 | 24073 ft | 438 kts | 326° |
| 2026-05-04 11:42 | -5.31012 | 105.91850 | 24399 ft | 440 kts | 326° |
| 2026-05-04 11:43 | -5.28505 | 105.90082 | 24720 ft | 441 kts | 326° |
| 2026-05-04 11:43 | -5.25990 | 105.88309 | 25039 ft | 443 kts | 326° |
| 2026-05-04 11:43 | -5.23466 | 105.86527 | 25355 ft | 445 kts | 326° |
| 2026-05-04 11:43 | -5.20930 | 105.84737 | 25667 ft | 446 kts | 326° |
| 2026-05-04 11:44 | -5.18385 | 105.82942 | 25979 ft | 448 kts | 326° |
| 2026-05-04 11:44 | -5.15837 | 105.81138 | 26284 ft | 450 kts | 326° |
| 2026-05-04 11:44 | -5.13282 | 105.79318 | 26575 ft | 451 kts | 326° |
| 2026-05-04 11:44 | -5.10722 | 105.77489 | 26869 ft | 453 kts | 326° |
| 2026-05-04 11:45 | -5.08147 | 105.75647 | 27152 ft | 455 kts | 326° |
| 2026-05-04 11:45 | -5.05566 | 105.73805 | 27434 ft | 456 kts | 326° |
| 2026-05-04 11:45 | -5.02973 | 105.71959 | 27723 ft | 458 kts | 326° |
| 2026-05-04 11:45 | -5.00368 | 105.70107 | 28017 ft | 460 kts | 326° |
| 2026-05-04 11:46 | -4.97746 | 105.68245 | 28315 ft | 462 kts | 326° |
| 2026-05-04 11:46 | -4.95119 | 105.66379 | 28609 ft | 464 kts | 326° |
| 2026-05-04 11:46 | -4.92479 | 105.64505 | 28879 ft | 466 kts | 326° |
| 2026-05-04 11:46 | -4.89825 | 105.62621 | 29155 ft | 468 kts | 326° |
| 2026-05-04 11:47 | -4.87161 | 105.60728 | 29433 ft | 470 kts | 326° |
| 2026-05-04 11:47 | -4.84488 | 105.58826 | 29732 ft | 472 kts | 326° |
| 2026-05-04 11:47 | -4.81809 | 105.56923 | 30110 ft | 471 kts | 326° |
| 2026-05-04 11:47 | -4.79139 | 105.55030 | 30461 ft | 470 kts | 326° |
| 2026-05-04 11:48 | -4.76473 | 105.53136 | 30809 ft | 469 kts | 326° |
| 2026-05-04 11:48 | -4.73812 | 105.51242 | 31161 ft | 469 kts | 326° |
| 2026-05-04 11:48 | -4.71158 | 105.49355 | 31519 ft | 468 kts | 326° |
| 2026-05-04 11:48 | -4.68509 | 105.47475 | 31890 ft | 467 kts | 326° |
| 2026-05-04 11:49 | -4.65859 | 105.45594 | 32265 ft | 466 kts | 326° |
| 2026-05-04 11:49 | -4.63219 | 105.43720 | 32643 ft | 465 kts | 326° |
| 2026-05-04 11:49 | -4.60585 | 105.41851 | 33026 ft | 464 kts | 326° |
| 2026-05-04 11:49 | -4.57954 | 105.39984 | 33404 ft | 463 kts | 326° |
| 2026-05-04 11:50 | -4.55330 | 105.38120 | 33787 ft | 462 kts | 325° |
| 2026-05-04 11:50 | -4.52711 | 105.36260 | 34118 ft | 461 kts | 325° |
| 2026-05-04 11:50 | -4.50137 | 105.34430 | 34435 ft | 460 kts | 325° |
| 2026-05-04 11:50 | -4.47529 | 105.32581 | 34755 ft | 459 kts | 326° |
| 2026-05-04 11:51 | -4.44924 | 105.30737 | 35071 ft | 458 kts | 326° |
| 2026-05-04 11:51 | -4.42333 | 105.28898 | 35396 ft | 456 kts | 326° |
| 2026-05-04 11:51 | -4.39746 | 105.27061 | 35701 ft | 455 kts | 326° |
| 2026-05-04 11:51 | -4.37158 | 105.25223 | 35854 ft | 456 kts | 326° |
| 2026-05-04 11:52 | -4.34556 | 105.23378 | 35890 ft | 461 kts | 326° |
| 2026-05-04 11:52 | -4.29306 | 105.19657 | 35889 ft | 463 kts | 326° |
| 2026-05-04 11:53 | -4.24051 | 105.15923 | 35887 ft | 463 kts | 326° |
| 2026-05-04 11:53 | -4.18799 | 105.12194 | 35888 ft | 463 kts | 326° |
| 2026-05-04 11:55 | -3.98993 | 104.95654 | 35894 ft | 465 kts | 318° |
| 2026-05-04 11:56 | -3.94255 | 104.91240 | 35892 ft | 466 kts | 318° |
| 2026-05-04 11:56 | -3.89520 | 104.86812 | 35894 ft | 466 kts | 318° |
| 2026-05-04 11:57 | -3.84789 | 104.82377 | 35895 ft | 466 kts | 318° |
| 2026-05-04 11:57 | -3.80056 | 104.77949 | 35896 ft | 466 kts | 318° |
| 2026-05-04 11:58 | -3.75315 | 104.73520 | 35896 ft | 466 kts | 318° |
| 2026-05-04 11:58 | -3.70578 | 104.69085 | 35897 ft | 466 kts | 318° |
| 2026-05-04 11:59 | -3.65840 | 104.64654 | 35897 ft | 467 kts | 318° |
| 2026-05-04 11:59 | -3.61893 | 104.60969 | 35897 ft | 467 kts | 318° |
| 2026-05-04 12:00 | -3.57149 | 104.56538 | 35896 ft | 467 kts | 318° |
| 2026-05-04 12:00 | -3.52405 | 104.52102 | 35894 ft | 467 kts | 318° |
| 2026-05-04 12:01 | -3.47661 | 104.47668 | 35896 ft | 467 kts | 318° |
| 2026-05-04 12:02 | -3.31031 | 104.32133 | 35900 ft | 467 kts | 318° |
| 2026-05-04 12:03 | -3.26270 | 104.27691 | 35900 ft | 468 kts | 318° |
| 2026-05-04 12:03 | -3.21513 | 104.23253 | 35895 ft | 468 kts | 318° |
| 2026-05-04 12:04 | -3.16752 | 104.18806 | 35895 ft | 468 kts | 318° |
| 2026-05-04 12:04 | -3.11994 | 104.14357 | 35893 ft | 468 kts | 318° |
| 2026-05-04 12:05 | -3.07232 | 104.09919 | 35891 ft | 468 kts | 318° |
| 2026-05-04 12:05 | -3.02475 | 104.05480 | 35894 ft | 468 kts | 318° |
| 2026-05-04 12:06 | -2.97716 | 104.01038 | 35900 ft | 467 kts | 318° |
| 2026-05-04 12:06 | -2.92961 | 103.96605 | 35900 ft | 467 kts | 318° |
| 2026-05-04 12:07 | -2.88213 | 103.92181 | 35901 ft | 466 kts | 318° |
| 2026-05-04 12:07 | -2.83472 | 103.87757 | 35902 ft | 466 kts | 318° |
| 2026-05-04 12:08 | -2.78735 | 103.83337 | 35901 ft | 465 kts | 318° |
| 2026-05-04 12:08 | -2.74008 | 103.78925 | 35899 ft | 465 kts | 318° |
| 2026-05-04 12:09 | -2.69279 | 103.74517 | 35900 ft | 464 kts | 318° |
| 2026-05-04 12:09 | -2.64557 | 103.70114 | 35902 ft | 464 kts | 318° |
| 2026-05-04 12:10 | -2.59832 | 103.65715 | 35903 ft | 464 kts | 318° |
| 2026-05-04 12:10 | -2.55106 | 103.61317 | 35899 ft | 464 kts | 318° |
| 2026-05-04 12:11 | -2.50390 | 103.56905 | 35898 ft | 464 kts | 318° |
| 2026-05-04 12:11 | -2.45704 | 103.52530 | 35900 ft | 465 kts | 318° |
| 2026-05-04 12:12 | -2.40976 | 103.48123 | 35902 ft | 465 kts | 318° |
| 2026-05-04 12:12 | -2.36242 | 103.43713 | 35903 ft | 465 kts | 318° |
| 2026-05-04 12:14 | -2.17318 | 103.26047 | 35909 ft | 466 kts | 318° |
| 2026-05-04 12:15 | -2.12580 | 103.21625 | 35907 ft | 466 kts | 318° |
| 2026-05-04 12:15 | -2.07847 | 103.17203 | 35906 ft | 466 kts | 318° |
| 2026-05-04 12:16 | -2.03112 | 103.12781 | 35906 ft | 466 kts | 318° |
| 2026-05-04 12:16 | -1.98375 | 103.08360 | 35908 ft | 466 kts | 318° |
| 2026-05-04 12:17 | -1.93630 | 103.03945 | 35908 ft | 466 kts | 318° |
| 2026-05-04 12:17 | -1.88887 | 102.99520 | 35907 ft | 466 kts | 318° |
| 2026-05-04 12:18 | -1.84151 | 102.95090 | 35910 ft | 466 kts | 318° |
| 2026-05-04 12:18 | -1.79405 | 102.90662 | 35911 ft | 467 kts | 318° |
| 2026-05-04 12:19 | -1.74661 | 102.86228 | 35907 ft | 467 kts | 318° |
| 2026-05-04 12:19 | -1.69950 | 102.81828 | 35908 ft | 467 kts | 318° |
| 2026-05-04 12:20 | -1.65196 | 102.77390 | 35909 ft | 467 kts | 318° |
| 2026-05-04 12:20 | -1.60442 | 102.72961 | 35912 ft | 468 kts | 318° |
| 2026-05-04 12:21 | -1.55169 | 102.69207 | 35910 ft | 465 kts | 335° |
| 2026-05-04 12:21 | -1.49103 | 102.67104 | 35905 ft | 463 kts | 345° |
| 2026-05-04 12:22 | -1.42923 | 102.65285 | 35907 ft | 463 kts | 345° |
| 2026-05-04 12:22 | -1.36738 | 102.63456 | 35908 ft | 463 kts | 345° |
| 2026-05-04 12:23 | -1.30553 | 102.61630 | 35912 ft | 464 kts | 345° |
| 2026-05-04 12:23 | -1.24359 | 102.59805 | 35730 ft | 464 kts | 345° |
| 2026-05-04 12:24 | -1.21268 | 102.58895 | 35423 ft | 464 kts | 345° |
| 2026-05-04 12:24 | -1.18149 | 102.57977 | 34558 ft | 471 kts | 345° |
| 2026-05-04 12:24 | -1.14986 | 102.57046 | 33697 ft | 476 kts | 345° |
| 2026-05-04 12:24 | -1.11783 | 102.56103 | 32667 ft | 483 kts | 345° |
| 2026-05-04 12:25 | -1.08543 | 102.55148 | 31749 ft | 487 kts | 345° |
| 2026-05-04 12:25 | -1.05290 | 102.54187 | 31151 ft | 485 kts | 345° |
| 2026-05-04 12:25 | -1.02075 | 102.53236 | 30570 ft | 481 kts | 345° |
| 2026-05-04 12:25 | -0.98870 | 102.52289 | 29943 ft | 479 kts | 345° |
| 2026-05-04 12:26 | -0.95681 | 102.51349 | 29266 ft | 476 kts | 345° |
| 2026-05-04 12:26 | -0.92526 | 102.50422 | 28673 ft | 470 kts | 345° |
| 2026-05-04 12:26 | -0.89404 | 102.49505 | 28058 ft | 466 kts | 345° |
| 2026-05-04 12:26 | -0.86307 | 102.48598 | 27465 ft | 461 kts | 345° |
| 2026-05-04 12:27 | -0.83245 | 102.47702 | 26868 ft | 457 kts | 345° |
| 2026-05-04 12:27 | -0.80211 | 102.46811 | 26294 ft | 453 kts | 345° |
| 2026-05-04 12:27 | -0.77198 | 102.45923 | 25712 ft | 449 kts | 345° |
| 2026-05-04 12:27 | -0.74212 | 102.45040 | 25155 ft | 445 kts | 345° |
| 2026-05-04 12:28 | -0.71257 | 102.44166 | 24605 ft | 442 kts | 345° |
| 2026-05-04 12:28 | -0.68327 | 102.43302 | 24081 ft | 437 kts | 345° |
| 2026-05-04 12:28 | -0.65420 | 102.42443 | 23574 ft | 434 kts | 345° |
| 2026-05-04 12:28 | -0.62537 | 102.41593 | 23009 ft | 430 kts | 345° |
| 2026-05-04 12:29 | -0.59688 | 102.40757 | 22524 ft | 424 kts | 345° |
| 2026-05-04 12:29 | -0.56953 | 102.39708 | 22033 ft | 420 kts | 334° |
| 2026-05-04 12:29 | -0.54496 | 102.38152 | 21563 ft | 418 kts | 322° |
| 2026-05-04 12:29 | -0.52372 | 102.36193 | 21112 ft | 414 kts | 316° |
| 2026-05-04 12:30 | -0.50334 | 102.34183 | 20663 ft | 410 kts | 316° |
| 2026-05-04 12:30 | -0.48302 | 102.32208 | 20217 ft | 405 kts | 317° |
| 2026-05-04 12:30 | -0.46281 | 102.30259 | 19769 ft | 401 kts | 317° |
| 2026-05-04 12:30 | -0.44284 | 102.28335 | 19338 ft | 397 kts | 317° |
| 2026-05-04 12:31 | -0.42330 | 102.26450 | 18903 ft | 394 kts | 317° |
| 2026-05-04 12:31 | -0.40372 | 102.24561 | 18478 ft | 390 kts | 317° |
| 2026-05-04 12:31 | -0.38432 | 102.22686 | 18035 ft | 386 kts | 317° |
| 2026-05-04 12:31 | -0.36512 | 102.20826 | 17589 ft | 382 kts | 317° |
| 2026-05-04 12:32 | -0.34615 | 102.18987 | 17182 ft | 378 kts | 316° |
| 2026-05-04 12:32 | -0.30871 | 102.15349 | 16352 ft | 373 kts | 316° |
| 2026-05-04 12:32 | -0.29020 | 102.13549 | 15947 ft | 370 kts | 316° |
| 2026-05-04 12:33 | -0.27181 | 102.11762 | 15552 ft | 368 kts | 316° |
| 2026-05-04 12:33 | -0.25351 | 102.09988 | 15170 ft | 365 kts | 316° |
| 2026-05-04 12:33 | -0.23531 | 102.08226 | 14787 ft | 363 kts | 316° |
| 2026-05-04 12:33 | -0.21725 | 102.06480 | 14405 ft | 360 kts | 316° |
| 2026-05-04 12:34 | -0.19930 | 102.04742 | 14031 ft | 358 kts | 316° |
| 2026-05-04 12:34 | -0.18146 | 102.03017 | 13654 ft | 356 kts | 316° |
| 2026-05-04 12:34 | -0.16375 | 102.01304 | 13245 ft | 353 kts | 316° |
| 2026-05-04 12:34 | -0.14616 | 101.99602 | 12882 ft | 351 kts | 316° |
| 2026-05-04 12:35 | -0.12869 | 101.97912 | 12513 ft | 348 kts | 316° |
| 2026-05-04 12:35 | -0.11135 | 101.96234 | 12154 ft | 346 kts | 316° |
| 2026-05-04 12:35 | -0.09413 | 101.94565 | 11919 ft | 345 kts | 316° |
| 2026-05-04 12:35 | -0.07673 | 101.92878 | 11112 ft | 354 kts | 316° |
| 2026-05-04 12:36 | -0.05890 | 101.91149 | 10396 ft | 359 kts | 316° |
| 2026-05-04 12:36 | -0.04124 | 101.89438 | 10197 ft | 346 kts | 316° |
| 2026-05-04 12:36 | -0.02431 | 101.87796 | 10078 ft | 333 kts | 316° |
| 2026-05-04 12:36 | -0.00799 | 101.86213 | 9959 ft | 321 kts | 316° |
| 2026-05-04 12:37 | 0.00776 | 101.84686 | 9840 ft | 310 kts | 316° |
| 2026-05-04 12:37 | 0.02300 | 101.83209 | 9699 ft | 301 kts | 316° |
| 2026-05-04 12:37 | 0.03796 | 101.81763 | 9382 ft | 298 kts | 316° |
| 2026-05-04 12:37 | 0.05282 | 101.80326 | 9048 ft | 296 kts | 316° |
| 2026-05-04 12:38 | 0.06758 | 101.78898 | 8724 ft | 294 kts | 316° |
| 2026-05-04 12:38 | 0.08213 | 101.77467 | 8394 ft | 293 kts | 312° |
| 2026-05-04 12:38 | 0.09371 | 101.75812 | 8071 ft | 291 kts | 297° |
| 2026-05-04 12:38 | 0.10176 | 101.73967 | 7719 ft | 290 kts | 292° |
| 2026-05-04 12:39 | 0.10952 | 101.72119 | 7436 ft | 287 kts | 292° |
| 2026-05-04 12:39 | 0.11720 | 101.70300 | 7217 ft | 282 kts | 293° |
| 2026-05-04 12:39 | 0.12480 | 101.68510 | 6937 ft | 279 kts | 293° |
| 2026-05-04 12:39 | 0.13238 | 101.66724 | 6644 ft | 278 kts | 292° |
| 2026-05-04 12:40 | 0.13989 | 101.64951 | 6354 ft | 276 kts | 292° |
| 2026-05-04 12:40 | 0.14735 | 101.63189 | 6056 ft | 275 kts | 292° |
| 2026-05-04 12:40 | 0.15461 | 101.61475 | 5920 ft | 267 kts | 292° |
| 2026-05-04 12:40 | 0.16174 | 101.59795 | 5792 ft | 259 kts | 292° |
| 2026-05-04 12:41 | 0.16857 | 101.58188 | 5672 ft | 251 kts | 292° |
| 2026-05-04 12:41 | 0.17535 | 101.56591 | 5537 ft | 243 kts | 292° |
| 2026-05-04 12:41 | 0.18188 | 101.55053 | 5303 ft | 239 kts | 292° |
| 2026-05-04 12:41 | 0.18827 | 101.53525 | 5024 ft | 238 kts | 289° |
| 2026-05-04 12:42 | 0.19197 | 101.51908 | 4578 ft | 244 kts | 275° |
| 2026-05-04 12:42 | 0.19274 | 101.50185 | 4142 ft | 250 kts | 273° |
| 2026-05-04 12:42 | 0.19349 | 101.48482 | 3842 ft | 240 kts | 273° |
| 2026-05-04 12:42 | 0.19454 | 101.46879 | 3598 ft | 228 kts | 281° |
| 2026-05-04 12:43 | 0.20026 | 101.45446 | 3391 ft | 212 kts | 306° |
| 2026-05-04 12:43 | 0.21021 | 101.44454 | 3353 ft | 196 kts | 326° |
| 2026-05-04 12:43 | 0.22222 | 101.43911 | 3226 ft | 191 kts | 346° |
| 2026-05-04 12:43 | 0.23537 | 101.43811 | 3117 ft | 190 kts | 2° |
| 2026-05-04 12:44 | 0.24862 | 101.43851 | 3040 ft | 190 kts | 1° |
| 2026-05-04 12:44 | 0.26183 | 101.43885 | 3034 ft | 190 kts | 1° |
| 2026-05-04 12:44 | 0.27505 | 101.43922 | 3034 ft | 191 kts | 1° |
| 2026-05-04 12:44 | 0.28838 | 101.43960 | 2981 ft | 191 kts | 1° |
| 2026-05-04 12:45 | 0.29735 | 101.43985 | 2865 ft | 190 kts | 1° |
| 2026-05-04 12:45 | 0.31477 | 101.44035 | 2570 ft | 187 kts | 1° |
| 2026-05-04 12:45 | 0.32754 | 101.44071 | 2340 ft | 179 kts | 2° |
| 2026-05-04 12:45 | 0.33958 | 101.44106 | 2118 ft | 170 kts | 1° |
| 2026-05-04 12:46 | 0.34738 | 101.44128 | 1989 ft | 159 kts | 2° |
| 2026-05-04 12:46 | 0.35788 | 101.44158 | 1773 ft | 148 kts | 2° |
| 2026-05-04 12:46 | 0.36810 | 101.44187 | 1593 ft | 144 kts | 2° |
| 2026-05-04 12:46 | 0.37793 | 101.44215 | 1408 ft | 143 kts | 2° |
| 2026-05-04 12:47 | 0.38782 | 101.44243 | 1228 ft | 142 kts | 1° |
| 2026-05-04 12:47 | 0.39766 | 101.44271 | 1048 ft | 142 kts | 2° |
| 2026-05-04 12:47 | 0.40753 | 101.44299 | 889 ft | 142 kts | 1° |
| 2026-05-04 12:47 | 0.41752 | 101.44328 | 720 ft | 142 kts | 0° |
| 2026-05-04 12:48 | 0.42735 | 101.44356 | 553 ft | 141 kts | 0° |
| 2026-05-04 12:48 | 0.43698 | 101.44382 | 378 ft | 140 kts | 0° |
| 2026-05-04 12:48 | 0.44673 | 101.44407 | 194 ft | 140 kts | 1° |
| 2026-05-04 12:48 | 0.45593 | 101.44433 | 126 ft | 115 kts | 2° |
| 2026-05-04 12:49 | 0.46222 | 101.44455 | 128 ft | 66 kts | 1° |
| 2026-05-04 12:49 | 0.46540 | 101.44459 | 129 ft | 23 kts | 6° |
| 2026-05-04 12:49 | 0.46627 | 101.44480 | 127 ft | 9 kts | 55° |
| 2026-05-04 12:49 | 0.46634 | 101.44549 | 128 ft | 12 kts | 89° |
| 2026-05-04 12:50 | 0.46613 | 101.44595 | 126 ft | 8 kts | 168° |
| 2026-05-04 12:50 | 0.46548 | 101.44595 | 128 ft | 11 kts | 180° |
| 2026-05-04 12:50 | 0.46485 | 101.44601 | 125 ft | 6 kts | 126° |
| 2026-05-04 12:50 | 0.46481 | 101.44653 | 127 ft | 9 kts | 88° |
| 2026-05-04 12:51 | 0.46481 | 101.44683 | 127 ft | 1 kts | 91° |
| 2026-05-04 13:04 | 0.46481 | 101.44670 | 124 ft | 4 kts | 92° |
| 2026-05-04 13:04 | 0.46483 | 101.44643 | 124 ft | 4 kts | 98° |
| 2026-05-04 13:04 | 0.46489 | 101.44617 | 125 ft | 4 kts | 111° |
| 2026-05-04 13:05 | 0.46502 | 101.44595 | 122 ft | 4 kts | 157° |
| 2026-05-04 13:05 | 0.46513 | 101.44593 | 125 ft | 1 kts | 182° |
| 2026-05-04 13:05 | 0.46514 | 101.44593 | 125 ft | 0 kts | 182° |
| 2026-05-04 13:07 | 0.46512 | 101.44593 | 125 ft | 2 kts | 182° |
| 2026-05-04 13:08 | 0.46477 | 101.44591 | 113 ft | 8 kts | 182° |
| 2026-05-04 13:08 | 0.46397 | 101.44588 | 128 ft | 11 kts | 189° |
| 2026-05-04 13:08 | 0.46384 | 101.44509 | 125 ft | 15 kts | 275° |
| 2026-05-04 13:08 | 0.46302 | 101.44458 | 128 ft | 18 kts | 181° |
| 2026-05-04 13:09 | 0.46159 | 101.44455 | 127 ft | 24 kts | 182° |
| 2026-05-04 13:09 | 0.45979 | 101.44449 | 126 ft | 27 kts | 181° |
| 2026-05-04 13:09 | 0.45788 | 101.44443 | 124 ft | 24 kts | 181° |
| 2026-05-04 13:09 | 0.45616 | 101.44438 | 126 ft | 25 kts | 183° |
| 2026-05-04 13:10 | 0.45435 | 101.44433 | 125 ft | 27 kts | 182° |
| 2026-05-04 13:10 | 0.45248 | 101.44427 | 128 ft | 25 kts | 181° |
| 2026-05-04 13:10 | 0.45072 | 101.44422 | 129 ft | 26 kts | 182° |
| 2026-05-04 13:10 | 0.44892 | 101.44418 | 129 ft | 20 kts | 181° |
| 2026-05-04 13:11 | 0.44779 | 101.44451 | 129 ft | 12 kts | 181° |
| 2026-05-04 13:11 | 0.44768 | 101.44410 | 128 ft | 5 kts | 342° |
| 2026-05-04 13:11 | 0.44810 | 101.44413 | 129 ft | 10 kts | 0° |
| 2026-05-04 13:11 | 0.45053 | 101.44420 | 129 ft | 75 kts | 1° |
| 2026-05-04 13:12 | 0.45844 | 101.44440 | 127 ft | 147 kts | 0° |
| 2026-05-04 13:12 | 0.46987 | 101.44442 | 583 ft | 171 kts | 4° |
| 2026-05-04 13:12 | 0.48148 | 101.44808 | 1293 ft | 181 kts | 33° |
| 2026-05-04 13:12 | 0.49018 | 101.45728 | 2105 ft | 187 kts | 61° |
| 2026-05-04 13:13 | 0.49512 | 101.46975 | 2449 ft | 202 kts | 69° |
| 2026-05-04 13:13 | 0.50012 | 101.48367 | 2662 ft | 223 kts | 69° |
| 2026-05-04 13:13 | 0.50570 | 101.49907 | 2903 ft | 248 kts | 69° |
| 2026-05-04 13:13 | 0.51185 | 101.51598 | 3388 ft | 265 kts | 69° |
| 2026-05-04 13:14 | 0.51823 | 101.53355 | 4128 ft | 272 kts | 69° |
| 2026-05-04 13:14 | 0.52475 | 101.55150 | 4896 ft | 278 kts | 69° |
| 2026-05-04 13:14 | 0.53139 | 101.56976 | 5667 ft | 282 kts | 69° |
| 2026-05-04 13:14 | 0.53810 | 101.58834 | 6437 ft | 286 kts | 70° |
| 2026-05-04 13:15 | 0.54451 | 101.60720 | 7181 ft | 289 kts | 77° |
| 2026-05-04 13:15 | 0.54459 | 101.62722 | 7900 ft | 292 kts | 104° |
| 2026-05-04 13:15 | 0.53540 | 101.64520 | 8633 ft | 295 kts | 132° |
| 2026-05-04 13:15 | 0.51887 | 101.65717 | 9358 ft | 297 kts | 159° |
| 2026-05-04 13:16 | 0.49875 | 101.66226 | 10063 ft | 300 kts | 168° |
| 2026-05-04 13:16 | 0.47823 | 101.66653 | 10439 ft | 315 kts | 168° |
| 2026-05-04 13:16 | 0.45570 | 101.67126 | 10587 ft | 338 kts | 168° |
| 2026-05-04 13:16 | 0.43213 | 101.67625 | 10865 ft | 352 kts | 167° |
| 2026-05-04 13:17 | 0.40834 | 101.68133 | 11390 ft | 357 kts | 167° |
| 2026-05-04 13:17 | 0.38364 | 101.68663 | 11988 ft | 360 kts | 167° |
| 2026-05-04 13:17 | 0.35940 | 101.69183 | 12567 ft | 363 kts | 167° |
| 2026-05-04 13:17 | 0.33464 | 101.69712 | 13144 ft | 366 kts | 167° |
| 2026-05-04 13:18 | 0.30981 | 101.70299 | 13711 ft | 368 kts | 161° |
| 2026-05-04 13:18 | 0.28621 | 101.71299 | 14192 ft | 370 kts | 152° |
| 2026-05-04 13:18 | 0.26309 | 101.72455 | 14700 ft | 372 kts | 152° |
| 2026-05-04 13:18 | 0.23984 | 101.73614 | 15203 ft | 375 kts | 152° |
| 2026-05-04 13:19 | 0.21636 | 101.74778 | 15708 ft | 377 kts | 152° |
| 2026-05-04 13:19 | 0.19278 | 101.75942 | 16198 ft | 380 kts | 153° |
| 2026-05-04 13:19 | 0.16899 | 101.77114 | 16686 ft | 383 kts | 153° |
| 2026-05-04 13:19 | 0.14504 | 101.78294 | 17173 ft | 385 kts | 152° |
| 2026-05-04 13:20 | 0.12205 | 101.79676 | 17643 ft | 387 kts | 142° |
| 2026-05-04 13:20 | 0.10213 | 101.81483 | 18117 ft | 388 kts | 130° |
| 2026-05-04 13:20 | 0.08465 | 101.83541 | 18531 ft | 390 kts | 129° |
| 2026-05-04 13:20 | 0.06696 | 101.85611 | 18944 ft | 393 kts | 129° |
| 2026-05-04 13:21 | 0.04904 | 101.87683 | 19354 ft | 395 kts | 130° |
| 2026-05-04 13:21 | 0.03097 | 101.89760 | 19764 ft | 397 kts | 130° |
| 2026-05-04 13:21 | 0.01272 | 101.91849 | 20172 ft | 400 kts | 130° |
| 2026-05-04 13:21 | -0.00561 | 101.93950 | 20602 ft | 402 kts | 130° |
| 2026-05-04 13:22 | -0.02401 | 101.96063 | 21000 ft | 405 kts | 130° |
| 2026-05-04 13:22 | -0.04248 | 101.98192 | 21396 ft | 407 kts | 130° |
| 2026-05-04 13:22 | -0.06108 | 102.00337 | 21783 ft | 409 kts | 130° |
| 2026-05-04 13:22 | -0.07975 | 102.02494 | 22164 ft | 412 kts | 130° |
| 2026-05-04 13:23 | -0.09856 | 102.04668 | 22540 ft | 414 kts | 130° |
| 2026-05-04 13:23 | -0.11746 | 102.06851 | 22902 ft | 416 kts | 130° |
| 2026-05-04 13:23 | -0.13644 | 102.09045 | 23267 ft | 419 kts | 130° |
| 2026-05-04 13:23 | -0.15551 | 102.11249 | 23599 ft | 421 kts | 130° |
| 2026-05-04 13:24 | -0.17471 | 102.13466 | 23895 ft | 423 kts | 130° |
| 2026-05-04 13:24 | -0.19249 | 102.15519 | 24175 ft | 425 kts | 130° |
| 2026-05-04 13:24 | -0.21135 | 102.17697 | 24474 ft | 426 kts | 130° |
| 2026-05-04 13:25 | -0.25041 | 102.22200 | 25061 ft | 430 kts | 130° |
| 2026-05-04 13:25 | -0.27006 | 102.24452 | 25351 ft | 432 kts | 130° |
| 2026-05-04 13:25 | -0.28986 | 102.26722 | 25646 ft | 434 kts | 130° |
| 2026-05-04 13:25 | -0.30971 | 102.28999 | 25928 ft | 436 kts | 130° |
| 2026-05-04 13:26 | -0.32805 | 102.31403 | 26201 ft | 436 kts | 121° |
| 2026-05-04 13:26 | -0.34276 | 102.34061 | 26470 ft | 438 kts | 117° |
| 2026-05-04 13:26 | -0.35700 | 102.36753 | 26744 ft | 439 kts | 117° |
| 2026-05-04 13:26 | -0.37142 | 102.39450 | 27011 ft | 441 kts | 117° |
| 2026-05-04 13:27 | -0.38596 | 102.42157 | 27285 ft | 443 kts | 117° |
| 2026-05-04 13:27 | -0.40058 | 102.44875 | 27557 ft | 445 kts | 117° |
| 2026-05-04 13:27 | -0.41525 | 102.47606 | 27828 ft | 447 kts | 117° |
| 2026-05-04 13:27 | -0.42994 | 102.50343 | 28097 ft | 449 kts | 117° |
| 2026-05-04 13:28 | -0.44473 | 102.53100 | 28368 ft | 451 kts | 117° |
| 2026-05-04 13:28 | -0.45959 | 102.55862 | 28639 ft | 453 kts | 117° |
| 2026-05-04 13:28 | -0.47453 | 102.58634 | 28980 ft | 453 kts | 117° |
| 2026-05-04 13:28 | -0.48944 | 102.61401 | 29372 ft | 452 kts | 117° |
| 2026-05-04 13:29 | -0.50431 | 102.64160 | 29769 ft | 451 kts | 117° |
| 2026-05-04 13:29 | -0.51918 | 102.66917 | 30143 ft | 450 kts | 117° |
| 2026-05-04 13:29 | -0.53401 | 102.69668 | 30479 ft | 449 kts | 117° |
| 2026-05-04 13:29 | -0.54860 | 102.72378 | 30817 ft | 448 kts | 117° |
| 2026-05-04 13:30 | -0.56336 | 102.75120 | 31166 ft | 448 kts | 117° |
| 2026-05-04 13:30 | -0.57808 | 102.77856 | 31517 ft | 447 kts | 117° |
| 2026-05-04 13:30 | -0.59297 | 102.80625 | 31876 ft | 446 kts | 117° |
| 2026-05-04 13:30 | -0.60743 | 102.83315 | 32236 ft | 445 kts | 117° |
| 2026-05-04 13:31 | -0.62203 | 102.86035 | 32616 ft | 444 kts | 117° |
| 2026-05-04 13:31 | -0.63657 | 102.88748 | 32985 ft | 443 kts | 117° |
| 2026-05-04 13:31 | -0.65111 | 102.91459 | 33353 ft | 442 kts | 117° |
| 2026-05-04 13:31 | -0.66564 | 102.94156 | 33734 ft | 441 kts | 117° |
| 2026-05-04 13:32 | -0.68019 | 102.96848 | 34043 ft | 440 kts | 117° |
| 2026-05-04 13:32 | -0.69472 | 102.99534 | 34344 ft | 439 kts | 117° |
| 2026-05-04 13:32 | -0.70918 | 103.02218 | 34638 ft | 438 kts | 117° |
| 2026-05-04 13:32 | -0.72359 | 103.04898 | 34938 ft | 437 kts | 117° |
| 2026-05-04 13:33 | -0.73795 | 103.07572 | 35224 ft | 436 kts | 117° |
| 2026-05-04 13:33 | -0.74762 | 103.09372 | 35426 ft | 436 kts | 117° |
| 2026-05-04 13:33 | -0.76656 | 103.12903 | 35803 ft | 434 kts | 117° |
| 2026-05-04 13:33 | -0.78085 | 103.15560 | 36085 ft | 434 kts | 117° |
| 2026-05-04 13:34 | -0.79509 | 103.18204 | 36368 ft | 433 kts | 117° |
| 2026-05-04 13:34 | -0.80476 | 103.19997 | 36542 ft | 432 kts | 117° |
| 2026-05-04 13:34 | -0.81901 | 103.22638 | 36811 ft | 432 kts | 117° |
| 2026-05-04 13:34 | -0.83325 | 103.25281 | 36911 ft | 433 kts | 117° |
| 2026-05-04 13:35 | -0.87643 | 103.33314 | 36919 ft | 443 kts | 118° |
| 2026-05-04 13:36 | -0.91418 | 103.38164 | 36929 ft | 446 kts | 137° |
| 2026-05-04 13:36 | -0.96239 | 103.42078 | 36932 ft | 447 kts | 140° |
| 2026-05-04 13:37 | -1.01076 | 103.45990 | 36932 ft | 447 kts | 140° |
| 2026-05-04 13:37 | -1.05902 | 103.49917 | 36936 ft | 448 kts | 140° |
| 2026-05-04 13:38 | -1.10743 | 103.53845 | 36934 ft | 448 kts | 140° |
| 2026-05-04 13:38 | -1.15580 | 103.57762 | 36936 ft | 448 kts | 140° |
| 2026-05-04 13:39 | -1.20418 | 103.61675 | 36942 ft | 448 kts | 140° |
| 2026-05-04 13:39 | -1.25260 | 103.65592 | 36940 ft | 447 kts | 140° |
| 2026-05-04 13:40 | -1.30093 | 103.69507 | 36940 ft | 447 kts | 140° |
| 2026-05-04 13:40 | -1.34927 | 103.73427 | 36940 ft | 448 kts | 140° |
| 2026-05-04 13:41 | -1.39769 | 103.77348 | 36933 ft | 448 kts | 140° |
| 2026-05-04 13:41 | -1.44605 | 103.81262 | 36932 ft | 448 kts | 140° |
| 2026-05-04 13:42 | -1.51882 | 103.87164 | 36930 ft | 449 kts | 140° |
| 2026-05-04 13:42 | -1.56738 | 103.91093 | 36927 ft | 449 kts | 140° |